createdAt,value
2023-06-17T00:00:09.749Z,3.90
2023-06-17T00:02:37.904Z,3.60
2023-06-17T00:05:07.088Z,4.07
2023-06-17T00:07:35.087Z,3.83
2023-06-17T00:10:04.500Z,3.55
2023-06-17T00:12:33.225Z,3.67
2023-06-17T00:15:02.840Z,3.83
2023-06-17T00:17:32.656Z,3.80
2023-06-17T00:20:02.274Z,4.10
2023-06-17T00:22:30.902Z,3.85
2023-06-17T00:24:58.927Z,3.80
2023-06-17T00:27:28.390Z,3.72
2023-06-17T00:30:00.775Z,3.83
2023-06-17T00:32:31.337Z,3.70
2023-06-17T00:34:59.744Z,4.03
2023-06-17T00:37:27.725Z,4.00
2023-06-17T00:39:55.767Z,3.97
2023-06-17T00:42:23.810Z,3.90
2023-06-17T00:44:53.200Z,3.67
2023-06-17T00:47:22.218Z,3.60
2023-06-17T00:49:50.676Z,4.10
2023-06-17T00:52:39.682Z,3.80
2023-06-17T00:55:09.916Z,3.90
2023-06-17T00:57:38.490Z,4.00
2023-06-17T01:00:12.721Z,4.22
2023-06-17T01:02:44.691Z,4.13
2023-06-17T01:05:16.249Z,4.00
2023-06-17T01:07:54.093Z,3.67
2023-06-17T01:10:29.930Z,4.15
2023-06-17T01:12:59.784Z,3.42
2023-06-17T01:15:29.471Z,3.88
2023-06-17T01:17:59.946Z,3.80
2023-06-17T01:20:29.932Z,3.72
2023-06-17T01:22:58.854Z,3.65
2023-06-17T01:25:32.852Z,3.80
2023-06-17T01:28:16.993Z,3.80
2023-06-17T01:30:45.730Z,3.83
2023-06-17T01:33:15.246Z,4.03
2023-06-17T01:35:48.472Z,4.05
2023-06-17T01:38:23.181Z,3.92
2023-06-17T01:40:59.975Z,4.30
2023-06-17T01:43:29.590Z,3.90
2023-06-17T01:45:59.463Z,4.00
2023-06-17T01:48:27.559Z,3.70
2023-06-17T01:50:55.514Z,3.55
2023-06-17T01:53:25.998Z,3.58
2023-06-17T01:55:56.696Z,3.78
2023-06-17T01:58:24.746Z,3.92
2023-06-17T02:00:52.882Z,3.80
2023-06-17T02:03:21.075Z,3.47
2023-06-17T02:05:51.579Z,3.92
2023-06-17T02:08:19.566Z,3.97
2023-06-17T02:10:47.615Z,4.10
2023-06-17T02:13:17.064Z,4.15
2023-06-17T02:15:45.365Z,4.05
2023-06-17T02:18:15.432Z,3.85
2023-06-17T02:20:46.075Z,4.20
2023-06-17T02:23:14.052Z,4.18
2023-06-17T02:25:42.078Z,3.65
2023-06-17T02:28:10.214Z,4.28
2023-06-17T02:30:39.824Z,3.95
2023-06-17T02:33:08.335Z,3.90
2023-06-17T02:35:36.570Z,4.40
2023-06-17T02:38:05.510Z,3.92
2023-06-17T02:40:33.518Z,4.13
2023-06-17T02:43:01.498Z,3.80
2023-06-17T02:45:29.544Z,4.22
2023-06-17T02:47:58.928Z,4.35
2023-06-17T02:50:28.413Z,3.72
2023-06-17T02:52:57.786Z,4.10
2023-06-17T02:55:30.139Z,4.38
2023-06-17T02:58:01.982Z,3.75
2023-06-17T03:00:37.492Z,4.10
2023-06-17T03:03:07.764Z,4.50
2023-06-17T03:05:36.836Z,3.70
2023-06-17T03:08:06.138Z,4.32
2023-06-17T03:10:35.016Z,3.65
2023-06-17T03:13:09.151Z,3.80
2023-06-17T03:15:37.963Z,4.47
2023-06-17T03:18:07.471Z,4.25
2023-06-17T03:20:36.237Z,3.70
2023-06-17T03:23:05.157Z,4.05
2023-06-17T03:25:33.458Z,3.70
2023-06-17T03:28:03.870Z,3.90
2023-06-17T03:30:32.362Z,3.60
2023-06-17T03:33:01.846Z,3.95
2023-06-17T03:35:31.644Z,3.78
2023-06-17T03:37:59.664Z,3.47
2023-06-17T03:40:27.812Z,4.20
2023-06-17T03:42:55.933Z,3.65
2023-06-17T03:45:24.273Z,3.60
2023-06-17T03:47:55.501Z,3.88
2023-06-17T03:50:23.810Z,3.65
2023-06-17T03:52:53.828Z,3.80
2023-06-17T03:55:23.723Z,3.35
2023-06-17T03:57:52.133Z,3.63
2023-06-17T04:00:21.093Z,4.22
2023-06-17T04:02:51.283Z,3.80
2023-06-17T04:05:34.304Z,3.70
2023-06-17T04:08:05.134Z,3.80
2023-06-17T04:10:35.697Z,3.97
2023-06-17T04:13:03.612Z,3.85
2023-06-17T04:15:31.634Z,3.72
2023-06-17T04:18:00.554Z,4.07
2023-06-17T04:20:29.076Z,4.05
2023-06-17T04:22:57.297Z,3.78
2023-06-17T04:25:26.645Z,4.03
2023-06-17T04:27:57.357Z,4.03
2023-06-17T04:30:28.579Z,3.80
2023-06-17T04:33:01.603Z,3.75
2023-06-17T04:35:31.255Z,4.30
2023-06-17T04:38:02.999Z,3.65
2023-06-17T04:40:33.487Z,3.75
2023-06-17T04:43:02.649Z,4.13
2023-06-17T04:45:33.194Z,3.75
2023-06-17T04:48:05.169Z,4.20
2023-06-17T04:50:34.616Z,4.32
2023-06-17T04:53:05.289Z,4.05
2023-06-17T04:55:37.962Z,4.03
2023-06-17T04:58:07.961Z,4.07
2023-06-17T05:00:41.728Z,4.00
2023-06-17T05:03:13.257Z,4.18
2023-06-17T05:05:41.335Z,3.97
2023-06-17T05:08:09.601Z,4.32
2023-06-17T05:10:38.904Z,3.80
2023-06-17T05:13:08.047Z,4.00
2023-06-17T05:15:36.814Z,3.50
2023-06-17T05:18:05.004Z,3.65
2023-06-17T05:20:33.747Z,3.83
2023-06-17T05:23:02.416Z,3.90
2023-06-17T05:25:30.406Z,3.97
2023-06-17T05:28:00.917Z,3.67
2023-06-17T05:30:31.136Z,3.85
2023-06-17T05:33:01.725Z,4.20
2023-06-17T05:35:30.084Z,3.63
2023-06-17T05:38:01.368Z,3.50
2023-06-17T05:40:30.196Z,3.60
2023-06-17T05:43:00.117Z,3.80
2023-06-17T05:45:28.227Z,4.65
2023-06-17T05:47:56.263Z,4.13
2023-06-17T05:50:24.842Z,4.05
2023-06-17T05:52:56.282Z,4.30
2023-06-17T05:55:24.227Z,4.28
2023-06-17T05:57:53.210Z,4.13
2023-06-17T06:00:23.610Z,4.10
2023-06-17T06:02:52.750Z,4.35
2023-06-17T06:05:20.884Z,3.80
2023-06-17T06:07:48.811Z,3.85
2023-06-17T06:10:18.072Z,3.75
2023-06-17T06:12:52.263Z,4.15
2023-06-17T06:15:20.190Z,3.92
2023-06-17T06:17:49.596Z,4.30
2023-06-17T06:20:17.898Z,4.10
2023-06-17T06:22:45.918Z,4.20
2023-06-17T06:25:14.135Z,4.05
2023-06-17T06:27:42.112Z,3.75
2023-06-17T06:30:11.277Z,3.65
2023-06-17T06:32:43.288Z,4.15
2023-06-17T06:35:13.973Z,3.85
2023-06-17T06:37:41.951Z,3.95
2023-06-17T06:40:11.113Z,4.15
2023-06-17T06:42:40.039Z,3.92
2023-06-17T06:45:17.088Z,4.05
2023-06-17T06:47:46.265Z,4.05
2023-06-17T06:50:15.654Z,4.18
2023-06-17T06:52:43.718Z,3.92
2023-06-17T06:55:11.968Z,3.78
2023-06-17T06:57:40.518Z,3.97
2023-06-17T07:00:10.684Z,4.10
2023-06-17T07:02:40.057Z,3.60
2023-06-17T07:05:08.509Z,3.67
2023-06-17T07:07:45.561Z,4.03
2023-06-17T07:10:14.058Z,3.47
2023-06-17T07:12:43.632Z,4.28
2023-06-17T07:15:12.978Z,4.18
2023-06-17T07:17:42.200Z,3.30
2023-06-17T07:20:10.670Z,3.70
2023-06-17T07:22:40.563Z,4.10
2023-06-17T07:25:11.159Z,3.85
2023-06-17T07:27:39.541Z,3.97
2023-06-17T07:30:09.046Z,4.25
2023-06-17T07:32:37.252Z,4.22
2023-06-17T07:35:06.267Z,4.22
2023-06-17T07:37:34.230Z,3.90
2023-06-17T07:40:05.645Z,4.47
2023-06-17T07:42:34.968Z,4.05
2023-06-17T07:45:02.945Z,3.92
2023-06-17T07:47:31.021Z,4.53
2023-06-17T07:49:59.025Z,4.28
2023-06-17T07:52:27.012Z,4.00
2023-06-17T07:54:54.935Z,4.07
2023-06-17T07:57:22.825Z,4.13
2023-06-17T07:59:52.342Z,4.38
2023-06-17T08:02:20.287Z,4.05
2023-06-17T08:04:48.868Z,4.32
2023-06-17T08:07:17.033Z,4.72
2023-06-17T08:09:45.079Z,3.97
2023-06-17T08:12:12.999Z,4.07
2023-06-17T08:14:40.969Z,4.45
2023-06-17T08:17:10.319Z,4.28
2023-06-17T08:19:38.309Z,4.43
2023-06-17T08:22:07.047Z,4.25
2023-06-17T08:24:35.092Z,4.25
2023-06-17T08:27:03.140Z,4.55
2023-06-17T08:29:32.210Z,4.00
2023-06-17T08:32:00.166Z,4.38
2023-06-17T08:34:33.307Z,4.25
2023-06-17T08:37:04.891Z,4.13
2023-06-17T08:39:33.319Z,4.43
2023-06-17T08:42:01.486Z,4.40
2023-06-17T08:44:35.181Z,3.95
2023-06-17T08:47:04.788Z,4.40
2023-06-17T08:49:35.383Z,4.45
2023-06-17T08:52:06.384Z,4.20
2023-06-17T08:54:41.240Z,3.75
2023-06-17T08:57:12.700Z,3.97
2023-06-17T08:59:42.732Z,4.05
2023-06-17T09:02:11.864Z,4.38
2023-06-17T09:04:41.980Z,4.15
2023-06-17T09:07:11.027Z,4.30
2023-06-17T09:09:39.278Z,4.50
2023-06-17T09:12:09.651Z,4.13
2023-06-17T09:14:38.078Z,4.43
2023-06-17T09:17:06.245Z,4.03
2023-06-17T09:19:34.591Z,4.72
2023-06-17T09:22:09.976Z,4.72
2023-06-17T09:24:43.731Z,4.18
2023-06-17T09:27:22.836Z,4.40
2023-06-17T09:30:07.809Z,4.43
2023-06-17T09:32:40.698Z,4.50
2023-06-17T09:35:15.763Z,4.55
2023-06-17T09:38:02.438Z,4.32
2023-06-17T09:40:34.501Z,4.32
2023-06-17T09:43:24.990Z,4.28
2023-06-17T09:45:56.586Z,4.45
2023-06-17T09:48:31.048Z,4.28
2023-06-17T09:51:00.058Z,4.28
2023-06-17T09:53:31.705Z,4.70
2023-06-17T09:56:01.493Z,4.18
2023-06-17T09:58:31.744Z,4.25
2023-06-17T10:01:01.796Z,4.47
2023-06-17T10:03:30.279Z,4.35
2023-06-17T10:06:04.190Z,4.22
2023-06-17T10:08:37.061Z,4.07
2023-06-17T10:11:05.252Z,3.97
2023-06-17T10:13:37.403Z,4.32
2023-06-17T10:16:06.998Z,4.53
2023-06-17T10:18:38.099Z,4.13
2023-06-17T10:21:10.024Z,4.50
2023-06-17T10:23:42.131Z,4.18
2023-06-17T10:26:10.660Z,4.30
2023-06-17T10:28:47.009Z,4.45
2023-06-17T10:31:23.426Z,4.57
2023-06-17T10:33:51.664Z,4.15
2023-06-17T10:36:22.376Z,4.35
2023-06-17T10:38:57.832Z,3.15
2023-06-17T10:41:52.979Z,3.17
2023-06-17T10:44:41.876Z,3.40
2023-06-17T10:47:22.779Z,3.28
2023-06-17T10:49:52.033Z,3.72
2023-06-17T10:52:21.423Z,4.15
2023-06-17T10:54:54.515Z,3.90
2023-06-17T10:57:35.737Z,4.25
2023-06-17T11:00:10.232Z,3.83
2023-06-17T11:02:39.358Z,4.05
2023-06-17T11:05:08.254Z,3.55
2023-06-17T11:07:36.620Z,3.72
2023-06-17T11:10:07.234Z,3.60
2023-06-17T11:12:37.060Z,3.53
2023-06-17T11:15:08.023Z,3.55
2023-06-17T11:17:44.139Z,3.17
2023-06-17T11:20:13.627Z,3.33
2023-06-17T11:22:42.118Z,3.55
2023-06-17T11:25:12.220Z,4.13
2023-06-17T11:27:42.372Z,3.72
2023-06-17T11:30:11.898Z,3.70
2023-06-17T11:32:42.934Z,3.80
2023-06-17T11:35:12.736Z,3.40
2023-06-17T11:37:41.081Z,3.83
2023-06-17T11:40:12.382Z,3.25
2023-06-17T11:42:40.705Z,3.50
2023-06-17T11:45:10.020Z,3.30
2023-06-17T11:47:38.578Z,3.60
2023-06-17T11:50:08.100Z,3.33
2023-06-17T11:52:38.079Z,3.60
2023-06-17T11:55:06.743Z,3.45
2023-06-17T11:57:35.019Z,3.53
2023-06-17T12:00:06.791Z,3.20
2023-06-17T12:02:41.414Z,3.55
2023-06-17T12:05:11.418Z,3.13
2023-06-17T12:07:41.675Z,3.10
2023-06-17T12:10:13.189Z,3.25
2023-06-17T12:12:42.254Z,3.30
2023-06-17T12:17:43.236Z,2.95
2023-06-17T12:20:16.114Z,3.10
2023-06-17T12:22:45.965Z,3.67
2023-06-17T12:25:14.021Z,3.75
2023-06-17T12:27:43.941Z,2.97
2023-06-17T12:30:12.914Z,3.50
2023-06-17T12:32:41.144Z,3.20
2023-06-17T12:35:11.289Z,3.60
2023-06-17T12:37:42.390Z,3.28
2023-06-17T12:40:13.820Z,3.60
2023-06-17T12:42:42.019Z,3.30
2023-06-17T12:45:10.787Z,2.95
2023-06-17T12:47:39.021Z,3.20
2023-06-17T12:50:07.787Z,3.10
2023-06-17T12:52:35.963Z,2.88
2023-06-17T12:55:05.962Z,3.70
2023-06-17T12:57:35.565Z,3.25
2023-06-17T13:00:06.067Z,3.40
2023-06-17T13:02:36.949Z,2.60
2023-06-17T13:05:06.496Z,3.08
2023-06-17T13:07:34.625Z,2.95
2023-06-17T13:10:02.961Z,3.22
2023-06-17T13:12:30.936Z,2.70
2023-06-17T13:15:00.399Z,2.70
2023-06-17T13:17:28.478Z,2.70
2023-06-17T13:19:56.561Z,3.05
2023-06-17T13:22:26.813Z,2.47
2023-06-17T13:24:55.017Z,2.90
2023-06-17T13:27:23.172Z,2.67
2023-06-17T13:29:51.313Z,2.80
2023-06-17T13:32:20.737Z,2.75
2023-06-17T13:34:48.887Z,2.70
2023-06-17T13:37:16.988Z,2.40
2023-06-17T13:39:45.024Z,2.85
2023-06-17T13:42:13.275Z,2.20
2023-06-17T13:44:42.297Z,2.30
2023-06-17T13:47:10.355Z,2.60
2023-06-17T13:49:39.705Z,2.50
2023-06-17T13:52:10.129Z,2.50
2023-06-17T13:54:38.167Z,2.40
2023-06-17T13:57:06.614Z,2.53
2023-06-17T13:59:36.083Z,2.28
2023-06-17T14:02:04.234Z,2.40
2023-06-17T14:04:32.266Z,2.47
2023-06-17T14:07:01.635Z,2.20
2023-06-17T14:09:29.784Z,2.15
2023-06-17T14:11:57.832Z,2.30
2023-06-17T14:14:25.916Z,2.42
2023-06-17T14:16:54.037Z,2.33
2023-06-17T14:19:21.991Z,2.40
2023-06-17T14:21:57.827Z,2.50
2023-06-17T14:24:27.229Z,2.38
2023-06-17T14:27:29.283Z,2.63
2023-06-17T14:29:57.273Z,2.75
2023-06-17T14:32:25.248Z,2.10
2023-06-17T14:34:53.797Z,2.05
2023-06-17T14:37:21.744Z,2.20
2023-06-17T14:39:51.030Z,2.33
2023-06-17T14:42:18.990Z,2.45
2023-06-17T14:44:46.984Z,2.38
2023-06-17T14:47:14.943Z,1.92
2023-06-17T14:49:42.873Z,1.95
2023-06-17T14:52:10.890Z,2.33
2023-06-17T14:54:38.868Z,3.00
2023-06-17T14:57:10.679Z,2.53
2023-06-17T14:59:38.867Z,2.53
2023-06-17T15:02:44.835Z,2.33
2023-06-17T15:05:13.251Z,2.72
2023-06-17T15:07:41.304Z,2.25
2023-06-17T15:10:09.959Z,2.35
2023-06-17T15:12:42.927Z,2.40
2023-06-17T15:15:12.514Z,2.00
2023-06-17T15:17:42.340Z,2.28
2023-06-17T15:20:12.135Z,2.20
2023-06-17T15:22:40.656Z,2.20
2023-06-17T15:25:09.391Z,2.20
2023-06-17T15:27:37.310Z,2.35
2023-06-17T15:30:08.213Z,2.25
2023-06-17T15:32:37.116Z,2.53
2023-06-17T15:35:05.729Z,2.70
2023-06-17T15:37:35.705Z,2.42
2023-06-17T15:40:06.648Z,2.60
2023-06-17T15:42:34.601Z,2.63
2023-06-17T15:45:03.276Z,2.45
2023-06-17T15:47:32.978Z,3.00
2023-06-17T15:50:01.012Z,3.03
2023-06-17T15:52:29.213Z,3.95
2023-06-17T15:54:57.872Z,3.22
2023-06-17T15:57:25.948Z,4.03
2023-06-17T15:59:54.518Z,3.90
2023-06-17T16:02:22.600Z,4.57
2023-06-17T16:04:54.861Z,3.40
2023-06-17T16:07:23.076Z,4.38
2023-06-17T16:09:51.582Z,4.55
2023-06-17T16:12:20.151Z,4.10
2023-06-17T16:14:48.412Z,4.22
2023-06-17T16:17:16.528Z,4.22
2023-06-17T16:19:45.053Z,4.20
2023-06-17T16:22:14.507Z,3.92
2023-06-17T16:24:44.567Z,4.03
2023-06-17T16:27:12.886Z,3.60
2023-06-17T16:29:41.393Z,3.83
2023-06-17T16:32:09.909Z,4.28
2023-06-17T16:34:38.632Z,3.90
2023-06-17T16:37:07.271Z,4.22
2023-06-17T16:39:36.700Z,4.05
2023-06-17T16:42:07.662Z,3.95
2023-06-17T16:44:36.119Z,3.35
2023-06-17T16:47:04.292Z,4.70
2023-06-17T16:49:32.281Z,3.88
2023-06-17T16:52:00.285Z,3.80
2023-06-17T16:54:28.332Z,3.90
2023-06-17T16:56:57.639Z,4.15
2023-06-17T16:59:26.144Z,3.90
2023-06-17T17:01:54.344Z,4.07
2023-06-17T17:04:22.282Z,4.40
2023-06-17T17:06:50.237Z,3.95
2023-06-17T17:09:18.346Z,4.07
2023-06-17T17:11:46.257Z,4.00
2023-06-17T17:14:15.691Z,3.85
2023-06-17T17:16:43.696Z,3.95
2023-06-17T17:19:11.738Z,3.38
2023-06-17T17:21:39.740Z,3.83
2023-06-17T17:24:07.852Z,3.75
2023-06-17T17:26:35.879Z,4.45
2023-06-17T17:29:04.397Z,4.05
2023-06-17T17:31:33.687Z,3.83
2023-06-17T17:34:01.792Z,3.80
2023-06-17T17:36:29.801Z,3.88
2023-06-17T17:38:57.829Z,4.05
2023-06-17T17:41:26.786Z,3.50
2023-06-17T17:43:54.752Z,3.83
2023-06-17T17:46:22.901Z,3.70
2023-06-17T17:48:52.260Z,3.60
2023-06-17T17:51:20.232Z,4.10
2023-06-17T17:53:48.211Z,3.90
2023-06-17T17:56:16.383Z,3.58
2023-06-17T17:58:44.335Z,3.60
2023-06-17T18:01:12.539Z,4.07
2023-06-17T18:03:40.734Z,4.00
2023-06-17T18:06:10.136Z,3.25
2023-06-17T18:08:38.068Z,3.30
2023-06-17T18:11:06.017Z,4.20
2023-06-17T18:13:33.971Z,3.60
2023-06-17T18:16:02.120Z,3.30
2023-06-17T18:18:30.313Z,3.63
2023-06-17T18:20:58.333Z,4.32
2023-06-17T18:23:27.648Z,3.72
2023-06-17T18:25:57.028Z,3.88
2023-06-17T18:28:25.023Z,3.78
2023-06-17T18:30:53.146Z,4.13
2023-06-17T18:33:21.129Z,3.90
2023-06-17T18:35:49.066Z,4.28
2023-06-17T18:38:17.055Z,3.72
2023-06-17T18:40:47.428Z,3.97
2023-06-17T18:43:15.497Z,3.40
2023-06-17T18:45:43.448Z,3.80
2023-06-17T18:48:11.435Z,3.42
2023-06-17T18:50:39.442Z,3.92
2023-06-17T18:53:07.359Z,3.60
2023-06-17T18:55:35.312Z,3.83
2023-06-17T18:58:04.644Z,4.18
2023-06-17T19:00:34.977Z,3.97
2023-06-17T19:03:03.958Z,3.45
2023-06-17T19:05:32.448Z,4.05
2023-06-17T19:08:00.481Z,3.60
2023-06-17T19:10:28.416Z,3.90
2023-06-17T19:12:56.440Z,4.18
2023-06-17T19:15:26.425Z,3.40
2023-06-17T19:18:01.775Z,3.95
2023-06-17T19:20:29.803Z,3.83
2023-06-17T19:22:57.712Z,3.78
2023-06-17T19:25:25.655Z,3.80
2023-06-17T19:27:53.554Z,3.40
2023-06-17T19:30:21.771Z,3.65
2023-06-17T19:32:51.562Z,3.58
2023-06-17T19:35:19.629Z,3.65
2023-06-17T19:37:47.682Z,3.50
2023-06-17T19:40:15.672Z,3.55
2023-06-17T19:42:43.664Z,3.58
2023-06-17T19:45:12.780Z,3.90
2023-06-17T19:47:40.858Z,3.75
2023-06-17T19:50:11.408Z,4.15
2023-06-17T19:52:39.411Z,4.25
2023-06-17T19:55:08.201Z,4.35
2023-06-17T19:57:36.176Z,3.88
2023-06-17T20:00:04.751Z,3.75
2023-06-17T20:02:40.114Z,4.07
2023-06-17T20:05:09.533Z,4.30
2023-06-17T20:07:38.848Z,4.43
2023-06-17T20:10:07.405Z,4.25
2023-06-17T20:12:35.427Z,3.63
2023-06-17T20:15:03.443Z,4.00
2023-06-17T20:17:31.465Z,4.13
2023-06-17T20:19:59.432Z,4.20
2023-06-17T20:22:27.359Z,4.55
2023-06-17T20:24:56.669Z,4.53
2023-06-17T20:27:24.696Z,4.13
2023-06-17T20:29:52.672Z,4.30
2023-06-17T20:32:20.769Z,4.80
2023-06-17T20:34:48.959Z,4.25
2023-06-17T20:37:17.767Z,4.22
2023-06-17T20:39:45.711Z,4.20
2023-06-17T20:42:15.033Z,4.60
2023-06-17T20:44:43.444Z,4.30
2023-06-17T20:47:11.435Z,4.30
2023-06-17T20:49:39.504Z,4.22
2023-06-17T20:52:07.847Z,4.38
2023-06-17T20:54:36.390Z,4.05
2023-06-17T20:57:04.798Z,4.22
2023-06-17T20:59:34.167Z,4.30
2023-06-17T21:02:02.289Z,4.28
2023-06-17T21:04:30.340Z,4.07
2023-06-17T21:06:58.456Z,4.40
2023-06-17T21:09:26.989Z,4.40
2023-06-17T21:11:55.116Z,4.47
2023-06-17T21:14:23.081Z,4.65
2023-06-17T21:16:53.834Z,4.15
2023-06-17T21:19:21.990Z,3.97
2023-06-17T21:21:49.971Z,4.35
2023-06-17T21:24:18.065Z,4.45
2023-06-17T21:26:46.024Z,4.47
2023-06-17T21:29:14.033Z,4.07
2023-06-17T21:31:41.999Z,4.43
2023-06-17T21:34:11.465Z,4.55
2023-06-17T21:36:39.542Z,4.35
2023-06-17T21:39:07.481Z,3.95
2023-06-17T21:41:35.737Z,4.05
2023-06-17T21:44:04.061Z,4.03
2023-06-17T21:46:32.839Z,4.50
2023-06-17T21:49:00.924Z,4.22
2023-06-17T21:51:30.829Z,4.57
2023-06-17T21:53:58.834Z,4.38
2023-06-17T21:56:27.034Z,4.15
2023-06-17T21:58:55.068Z,4.05
2023-06-17T22:01:23.055Z,4.43
2023-06-17T22:03:51.219Z,3.95
2023-06-17T22:06:19.300Z,4.57
2023-06-17T22:08:48.669Z,3.83
2023-06-17T22:11:16.879Z,4.15
2023-06-17T22:13:44.845Z,4.47
2023-06-17T22:16:13.222Z,4.43
2023-06-17T22:18:41.302Z,4.18
2023-06-17T22:21:09.345Z,4.30
2023-06-17T22:23:37.291Z,4.40
2023-06-17T22:26:06.748Z,4.63
2023-06-17T22:28:34.747Z,3.85
2023-06-17T22:31:02.806Z,4.50
2023-06-17T22:33:30.823Z,4.32
2023-06-17T22:35:58.786Z,4.38
2023-06-17T22:38:26.784Z,4.22
2023-06-17T22:40:54.753Z,4.28
2023-06-17T22:43:24.046Z,3.92
2023-06-17T22:45:52.077Z,4.85
2023-06-17T22:48:20.130Z,4.47
2023-06-17T22:50:48.111Z,4.47
2023-06-17T22:53:16.037Z,4.10
2023-06-17T22:55:44.033Z,4.07
2023-06-17T22:58:12.144Z,4.78
2023-06-17T23:00:41.510Z,4.32
2023-06-17T23:03:10.092Z,4.13
2023-06-17T23:05:38.122Z,4.25
2023-06-17T23:08:06.405Z,4.55
2023-06-17T23:10:36.482Z,3.78
2023-06-17T23:13:04.719Z,4.72
2023-06-17T23:15:32.768Z,4.47
2023-06-17T23:18:02.140Z,4.68
2023-06-17T23:20:30.232Z,4.18
2023-06-17T23:22:58.264Z,5.15
2023-06-17T23:25:27.462Z,4.40
2023-06-17T23:27:57.757Z,4.88
2023-06-17T23:30:26.547Z,4.63
2023-06-17T23:32:54.625Z,5.35
2023-06-17T23:35:24.041Z,4.82
2023-06-17T23:37:52.029Z,4.53
2023-06-17T23:43:05.746Z,5.47
2023-06-17T23:45:34.189Z,4.90
2023-06-17T23:48:02.376Z,4.50
2023-06-17T23:53:18.182Z,4.70
2023-06-17T23:58:32.138Z,4.22
